Time;durP1;ratioP1;P1;durP2;ratioP2;P2;SDS_P1;SDS_P2;PMS_P1;PMS_P2;Temp;Humidity;BMP_temperature;BMP_pressure;BME280_temperature;BME280_humidity;BME280_pressure;Samples;Min_cycle;Max_cycle;Signal;HPM_P1;HPM_P2
2023/06/18 00:00:47;;;;;;;1.08;0.95;;;;;;;18.70;87.14;99113.47;4944388;29;20091;-82
2023/06/18 00:03:12;;;;;;;1.13;0.68;;;;;;;18.92;86.38;99122.00;4941940;29;20023;-84
2023/06/18 00:05:38;;;;;;;1.17;0.60;;;;;;;18.94;86.37;99124.59;4945356;29;20486;-81
2023/06/18 00:08:05;;;;;;;3.40;1.30;;;;;;;18.99;86.52;99126.97;4941036;29;20039;-83
2023/06/18 00:10:31;;;;;;;0.40;0.40;;;;;;;18.79;85.86;99087.06;4928703;29;20166;-83
2023/06/18 00:12:56;;;;;;;1.80;1.05;;;;;;;18.92;85.87;99134.47;4946346;29;20118;-81
2023/06/18 00:15:22;;;;;;;1.02;0.57;;;;;;;18.73;86.53;99113.28;4942061;29;20039;-84
2023/06/18 00:17:47;;;;;;;0.98;0.65;;;;;;;18.54;86.27;99052.91;4942711;29;20111;-82
2023/06/18 00:20:13;;;;;;;0.60;0.50;;;;;;;18.93;84.69;99102.31;4941696;29;20473;-81
2023/06/18 00:22:38;;;;;;;1.65;0.77;;;;;;;18.73;85.08;99081.22;4941138;28;20038;-81
2023/06/18 00:25:05;;;;;;;0.63;0.50;;;;;;;18.90;84.60;99099.81;4943779;29;20047;-81
2023/06/18 00:27:31;;;;;;;0.40;0.40;;;;;;;19.10;85.08;99121.84;4945611;29;20071;-81
2023/06/18 00:29:56;;;;;;;0.88;0.80;;;;;;;18.98;84.37;99131.44;4943768;29;20121;-81
2023/06/18 00:32:22;;;;;;;1.92;1.30;;;;;;;18.79;84.35;99096.91;4951484;29;20035;-81
2023/06/18 00:34:53;;;;;;;3.75;1.58;;;;;;;18.85;84.01;99099.25;4954577;29;20030;-81
2023/06/18 00:37:20;;;;;;;1.52;0.57;;;;;;;19.02;83.42;99116.13;4953460;29;20034;-81
2023/06/18 00:39:46;;;;;;;1.63;1.15;;;;;;;19.00;83.82;99108.19;4947925;29;20038;-82
2023/06/18 00:42:12;;;;;;;1.63;0.90;;;;;;;18.94;82.86;99080.00;4943401;29;20079;-82
2023/06/18 00:44:41;;;;;;;1.58;0.82;;;;;;;19.11;82.52;99129.78;4937267;29;20056;-82
2023/06/18 00:47:14;;;;;;;1.02;0.75;;;;;;;18.88;82.36;99093.72;4926926;29;20027;-81
2023/06/18 00:49:41;;;;;;;1.27;0.73;;;;;;;18.92;81.85;99099.75;4944315;29;20035;-81
2023/06/18 00:52:14;;;;;;;1.38;0.93;;;;;;;18.69;82.44;99072.53;4953547;29;20028;-81
2023/06/18 00:54:46;;;;;;;0.43;0.43;;;;;;;18.73;82.46;99073.22;4953887;29;20038;-81
2023/06/18 00:57:17;;;;;;;1.65;0.57;;;;;;;18.92;82.10;99103.28;4951617;29;20034;-81
2023/06/18 00:59:43;;;;;;;2.38;1.70;;;;;;;18.82;82.35;99109.22;4950098;29;20027;-82
2023/06/18 01:02:09;;;;;;;1.85;1.40;;;;;;;18.86;82.53;99116.13;4951413;29;20135;-82
2023/06/18 01:04:37;;;;;;;1.15;0.90;;;;;;;18.95;82.20;99107.56;4953424;29;20118;-81
2023/06/18 01:07:03;;;;;;;2.60;1.30;;;;;;;18.92;81.65;99119.31;4953468;29;20523;-82
2023/06/18 01:09:30;;;;;;;1.25;1.15;;;;;;;18.91;81.34;99135.44;4953874;29;20118;-81
2023/06/18 01:12:00;;;;;;;1.50;0.82;;;;;;;18.88;81.03;99103.56;4953425;29;20521;-81
2023/06/18 01:14:27;;;;;;;0.88;0.70;;;;;;;18.91;81.07;99127.44;4953800;29;20057;-81
2023/06/18 01:16:59;;;;;;;1.52;1.08;;;;;;;18.66;80.39;99078.06;4952664;29;20137;-81
2023/06/18 01:19:38;;;;;;;1.60;0.70;;;;;;;18.88;80.47;99104.41;4953542;29;20035;-81
2023/06/18 01:22:32;;;;;;;0.60;0.57;;;;;;;19.03;79.65;99115.13;4953032;29;20130;-81
2023/06/18 01:25:02;;;;;;;1.17;0.60;;;;;;;18.91;79.87;99111.41;4945416;29;20051;-81
2023/06/18 01:27:33;;;;;;;1.00;0.63;;;;;;;19.17;79.07;99119.66;4952884;29;20043;-81
2023/06/18 01:30:00;;;;;;;1.80;0.68;;;;;;;18.90;78.96;99096.31;4953478;29;20039;-81
2023/06/18 01:32:26;;;;;;;9.98;1.23;;;;;;;19.19;79.42;99131.16;4951756;29;20043;-81
2023/06/18 01:34:55;;;;;;;0.70;0.55;;;;;;;19.08;79.50;99124.63;4952011;28;20031;-82
2023/06/18 01:37:29;;;;;;;1.90;1.08;;;;;;;19.11;78.90;99153.00;4953029;29;20035;-81
2023/06/18 01:40:25;;;;;;;11.93;1.33;;;;;;;19.29;78.96;99157.25;4953042;29;20074;-82
2023/06/18 01:42:55;;;;;;;0.98;0.47;;;;;;;19.16;78.35;99112.63;4935717;29;20613;-81
2023/06/18 01:45:27;;;;;;;1.20;0.88;;;;;;;19.09;77.93;99142.38;4952931;29;20043;-82
2023/06/18 01:48:00;;;;;;;1.45;0.80;;;;;;;19.13;78.35;99108.31;4952798;29;20058;-83
2023/06/18 01:50:27;;;;;;;3.80;1.38;;;;;;;19.20;77.92;99128.38;4952811;29;20178;-81
2023/06/18 01:52:54;;;;;;;1.27;0.73;;;;;;;19.04;78.30;99131.09;4953102;29;20046;-81
2023/06/18 01:55:21;;;;;;;0.63;0.60;;;;;;;19.01;77.46;99115.22;4952562;29;20124;-82
2023/06/18 01:57:47;;;;;;;2.80;1.30;;;;;;;19.23;77.43;99156.72;4946651;29;20485;-81
2023/06/18 02:00:13;;;;;;;0.70;0.65;;;;;;;19.07;77.55;99143.41;4934468;29;20071;-82
2023/06/18 02:02:39;;;;;;;4.32;1.23;;;;;;;19.03;77.59;99125.84;4917307;29;20498;-81
2023/06/18 02:05:04;;;;;;;2.70;1.00;;;;;;;19.16;76.78;99142.03;4952592;29;20143;-82
2023/06/18 02:07:30;;;;;;;1.05;1.00;;;;;;;18.94;78.23;99143.28;4952224;29;20390;-81
2023/06/18 02:09:55;;;;;;;1.85;0.98;;;;;;;18.88;77.79;99143.66;4952942;29;20031;-82
2023/06/18 02:12:21;;;;;;;0.82;0.82;;;;;;;19.05;77.11;99156.03;4952442;29;20027;-82
2023/06/18 02:14:46;;;;;;;1.05;0.70;;;;;;;19.11;76.93;99166.34;4952588;29;20038;-82
2023/06/18 02:17:12;;;;;;;1.10;1.00;;;;;;;19.12;77.51;99176.06;4951971;29;20027;-82
2023/06/18 02:19:37;;;;;;;1.38;1.13;;;;;;;19.02;77.08;99185.59;4952221;29;20489;-82
2023/06/18 02:22:03;;;;;;;2.20;1.75;;;;;;;19.02;76.67;99190.94;4952499;29;20031;-81
2023/06/18 02:24:28;;;;;;;3.08;1.30;;;;;;;19.11;76.29;99187.75;4952543;29;20065;-81
2023/06/18 02:26:54;;;;;;;2.67;1.42;;;;;;;18.97;76.62;99153.78;4952867;29;20039;-82
2023/06/18 02:29:20;;;;;;;2.20;1.25;;;;;;;18.97;76.57;99183.19;4952202;29;20033;-82
2023/06/18 02:31:45;;;;;;;2.63;1.35;;;;;;;19.06;77.19;99196.03;4951551;29;20414;-81
2023/06/18 02:34:11;;;;;;;0.98;0.82;;;;;;;18.78;77.33;99169.97;4951581;29;20093;-82
2023/06/18 02:36:38;;;;;;;2.53;1.42;;;;;;;18.95;77.69;99201.09;4951863;29;20042;-81
2023/06/18 02:39:04;;;;;;;1.10;0.70;;;;;;;18.93;76.46;99190.50;4952224;29;20069;-81
2023/06/18 02:41:29;;;;;;;1.80;0.90;;;;;;;18.93;75.98;99174.47;4951958;29;20035;-82
2023/06/18 02:43:55;;;;;;;2.38;1.15;;;;;;;18.95;76.21;99185.06;4949996;29;20069;-81
2023/06/18 02:46:20;;;;;;;2.17;1.48;;;;;;;18.88;76.20;99222.00;4932581;29;20039;-81
2023/06/18 02:48:47;;;;;;;1.92;1.45;;;;;;;19.05;75.42;99196.13;4952173;29;20860;-81
2023/06/18 02:51:12;;;;;;;1.85;1.40;;;;;;;19.20;75.03;99213.94;4951115;29;20031;-81
2023/06/18 02:53:38;;;;;;;2.35;2.17;;;;;;;19.19;74.71;99198.00;4952381;29;20468;-80
2023/06/18 02:56:04;;;;;;;1.25;0.82;;;;;;;19.17;74.95;99205.22;4951490;29;20425;-81
2023/06/18 02:58:29;;;;;;;2.40;1.35;;;;;;;19.01;75.75;99192.75;4952042;29;20083;-82
2023/06/18 03:00:59;;;;;;;1.92;0.90;;;;;;;19.13;75.17;99216.09;4951298;29;20071;-81
2023/06/18 03:03:25;;;;;;;2.10;1.48;;;;;;;19.03;75.55;99211.34;4952007;29;20028;-81
2023/06/18 03:05:52;;;;;;;2.33;1.30;;;;;;;19.05;75.14;99205.00;4952240;29;20038;-81
2023/06/18 03:08:21;;;;;;;4.82;1.90;;;;;;;19.13;74.44;99189.34;4951983;29;20501;-81
2023/06/18 03:10:46;;;;;;;1.58;0.93;;;;;;;19.23;74.28;99212.88;4950899;29;20059;-82
2023/06/18 03:13:12;;;;;;;1.30;1.08;;;;;;;19.51;74.27;99220.16;4951679;29;20032;-82
2023/06/18 03:15:38;;;;;;;3.22;1.48;;;;;;;19.44;73.41;99211.63;4951083;29;20039;-86
2023/06/18 03:18:05;;;;;;;12.27;1.50;;;;;;;19.33;73.63;99216.75;4951937;29;20064;-82
2023/06/18 03:20:31;;;;;;;1.77;1.05;;;;;;;19.42;73.90;99242.94;4950921;29;20122;-82
2023/06/18 03:22:57;;;;;;;2.13;1.50;;;;;;;19.30;73.59;99214.25;4950097;29;20126;-81
2023/06/18 03:25:23;;;;;;;1.42;1.20;;;;;;;19.42;74.29;99242.09;4941588;29;20119;-83
2023/06/18 03:27:48;;;;;;;1.75;1.25;;;;;;;19.32;73.64;99231.06;4950908;29;20031;-82
2023/06/18 03:30:14;;;;;;;1.75;1.25;;;;;;;19.48;73.00;99253.28;4933962;29;20047;-82
2023/06/18 03:32:40;;;;;;;3.20;2.10;;;;;;;19.48;73.62;99231.03;4944004;29;20031;-82
2023/06/18 03:35:06;;;;;;;2.30;1.63;;;;;;;19.37;73.17;99229.00;4945948;29;20057;-82
2023/06/18 03:37:31;;;;;;;3.40;1.63;;;;;;;19.73;73.38;99242.94;4948504;29;20039;-83
2023/06/18 03:39:57;;;;;;;3.45;2.00;;;;;;;19.42;72.75;99213.53;4932348;29;20450;-82
2023/06/18 03:42:24;;;;;;;2.83;1.52;;;;;;;19.45;73.92;99240.09;4940740;29;20555;-83
2023/06/18 03:44:49;;;;;;;1.75;1.05;;;;;;;19.66;72.80;99251.34;4936019;29;20054;-83
2023/06/18 03:47:15;;;;;;;3.88;1.38;;;;;;;19.61;73.72;99229.34;4940320;29;20398;-83
2023/06/18 03:49:41;;;;;;;1.98;1.15;;;;;;;19.74;73.03;99250.00;4937311;29;20422;-83
2023/06/18 03:52:06;;;;;;;3.97;2.38;;;;;;;19.61;73.30;99255.25;4939295;29;20431;-82
2023/06/18 03:54:32;;;;;;;1.42;1.27;;;;;;;19.69;73.69;99266.34;4943647;29;20039;-83
2023/06/18 03:56:58;;;;;;;2.80;2.30;;;;;;;19.61;73.34;99236.50;4944175;28;20477;-82
2023/06/18 03:59:24;;;;;;;7.50;2.88;;;;;;;19.54;73.43;99245.84;4935594;29;20063;-80
2023/06/18 04:01:50;;;;;;;3.60;2.10;;;;;;;19.64;73.44;99239.84;4935820;29;20063;-81
2023/06/18 04:04:16;;;;;;;3.80;2.30;;;;;;;19.76;73.61;99246.28;4943151;29;20122;-81
2023/06/18 04:06:41;;;;;;;3.20;2.05;;;;;;;19.59;73.80;99249.13;4943090;29;20038;-80
2023/06/18 04:09:07;;;;;;;2.20;1.52;;;;;;;19.68;73.32;99268.16;4949010;29;20030;-81
2023/06/18 04:11:32;;;;;;;3.42;2.55;;;;;;;19.78;73.46;99252.44;4945885;29;20031;-81
2023/06/18 04:13:58;;;;;;;2.65;1.75;;;;;;;20.05;73.57;99281.19;4945383;29;20498;-80
2023/06/18 04:16:24;;;;;;;2.42;1.67;;;;;;;19.80;72.69;99285.34;4944223;29;20193;-82
2023/06/18 04:18:49;;;;;;;3.38;1.73;;;;;;;19.83;74.34;99281.59;4941527;29;20121;-82
2023/06/18 04:21:15;;;;;;;2.90;1.88;;;;;;;19.57;73.23;99248.34;4944816;29;20494;-81
2023/06/18 04:23:42;;;;;;;2.47;1.48;;;;;;;19.63;73.23;99242.63;4954183;29;20118;-80
2023/06/18 04:26:07;;;;;;;1.95;1.60;;;;;;;19.95;72.50;99261.28;4954188;29;20035;-81
2023/06/18 04:28:33;;;;;;;3.83;2.25;;;;;;;19.77;73.26;99241.81;4948431;28;20046;-82
2023/06/18 04:30:58;;;;;;;2.70;2.00;;;;;;;19.93;73.18;99266.72;4948978;28;20031;-82
2023/06/18 04:33:24;;;;;;;2.47;1.50;;;;;;;19.94;72.93;99276.47;4948867;29;20035;-81
2023/06/18 04:35:50;;;;;;;1.75;1.15;;;;;;;19.65;73.27;99251.44;4940732;29;20035;-81
2023/06/18 04:38:15;;;;;;;2.55;1.80;;;;;;;19.91;73.87;99295.41;4935310;29;20039;-81
2023/06/18 04:40:41;;;;;;;1.85;1.20;;;;;;;19.74;73.53;99250.88;4944750;29;20035;-82
2023/06/18 04:43:06;;;;;;;3.33;2.03;;;;;;;19.67;73.25;99277.13;4947997;29;20497;-81
2023/06/18 04:45:32;;;;;;;3.67;1.70;;;;;;;20.04;75.18;99280.31;4926818;29;20047;-83
2023/06/18 04:47:57;;;;;;;1.35;1.23;;;;;;;20.21;72.75;99305.19;4944688;29;20644;-84
2023/06/18 04:50:23;;;;;;;2.53;1.90;;;;;;;20.17;73.20;99298.28;4945934;29;20055;-81
2023/06/18 04:52:48;;;;;;;2.33;1.92;;;;;;;20.16;72.85;99276.03;4952296;29;20441;-81
2023/06/18 04:55:14;;;;;;;1.90;1.38;;;;;;;20.26;72.44;99280.81;4945169;29;20035;-80
2023/06/18 04:57:40;;;;;;;3.45;2.08;;;;;;;20.57;72.26;99283.31;4945716;29;20035;-82
2023/06/18 05:00:07;;;;;;;1.63;1.40;;;;;;;20.90;71.99;99297.38;4925239;29;20028;-81
2023/06/18 05:02:33;;;;;;;1.77;1.55;;;;;;;21.06;71.30;99318.69;4952574;29;20039;-81
2023/06/18 05:04:58;;;;;;;3.17;2.22;;;;;;;21.23;69.82;99294.31;4945669;29;20083;-83
2023/06/18 05:07:24;;;;;;;4.70;2.78;;;;;;;21.64;68.73;99330.13;4939285;29;20036;-82
2023/06/18 05:09:49;;;;;;;2.83;1.70;;;;;;;21.20;68.07;99285.63;4948155;28;20114;-83
2023/06/18 05:12:16;;;;;;;1.08;0.98;;;;;;;21.40;68.87;99300.41;4943531;29;20078;-82
2023/06/18 05:14:41;;;;;;;4.05;2.90;;;;;;;21.41;70.40;99272.59;4951480;29;20058;-85
2023/06/18 05:17:07;;;;;;;5.25;2.45;;;;;;;21.73;67.65;99315.25;4947954;29;20063;-83
2023/06/18 05:19:32;;;;;;;21.05;2.17;;;;;;;21.43;68.24;99281.44;4940208;29;20050;-87
2023/06/18 05:21:58;;;;;;;2.05;1.50;;;;;;;21.35;66.61;99316.81;4942715;29;20066;-83
2023/06/18 05:24:24;;;;;;;4.22;2.45;;;;;;;21.28;68.50;99289.50;4920757;29;20082;-90
2023/06/18 05:26:49;;;;;;;1.85;1.15;;;;;;;21.36;66.98;99309.59;4949046;29;20051;-85
2023/06/18 05:29:18;;;;;;;2.90;2.08;;;;;;;21.29;67.95;99309.16;4950765;29;20027;-85
2023/06/18 05:31:43;;;;;;;2.85;2.00;;;;;;;21.43;67.96;99337.75;4947662;29;20058;-85
2023/06/18 05:34:09;;;;;;;2.55;1.33;;;;;;;21.52;69.46;99322.91;4949433;29;20035;-86
2023/06/18 05:36:34;;;;;;;2.70;1.65;;;;;;;21.32;68.76;99334.91;4936355;29;20122;-84
2023/06/18 05:39:00;;;;;;;3.53;2.85;;;;;;;21.34;69.88;99355.31;4938840;29;20047;-86
2023/06/18 05:41:27;;;;;;;2.08;1.40;;;;;;;20.97;69.64;99338.91;4939221;29;20078;-84
2023/06/18 05:43:52;;;;;;;2.92;1.73;;;;;;;21.04;70.35;99332.22;4942993;29;20121;-81
2023/06/18 05:46:18;;;;;;;1.77;1.42;;;;;;;20.80;70.15;99282.84;4946375;29;20489;-81
2023/06/18 05:48:43;;;;;;;3.25;1.92;;;;;;;21.23;70.21;99329.19;4951762;29;20039;-82
2023/06/18 05:51:09;;;;;;;3.50;1.83;;;;;;;21.38;69.48;99345.22;4949416;29;20041;-82
2023/06/18 05:53:34;;;;;;;2.25;1.35;;;;;;;21.21;70.00;99351.69;4951511;29;20413;-81
2023/06/18 05:56:00;;;;;;;2.83;1.85;;;;;;;20.95;69.44;99315.84;4950394;29;20093;-82
2023/06/18 05:58:26;;;;;;;3.40;2.38;;;;;;;20.81;70.06;99340.88;4951117;29;20031;-81
2023/06/18 06:00:53;;;;;;;3.40;2.30;;;;;;;21.12;69.84;99342.44;4951195;29;20748;-81
2023/06/18 06:03:18;;;;;;;1.90;1.63;;;;;;;21.01;69.81;99361.03;4951629;29;20058;-81
2023/06/18 06:05:44;;;;;;;4.53;1.80;;;;;;;21.05;69.82;99358.06;4950456;29;20031;-81
2023/06/18 06:08:11;;;;;;;2.45;1.63;;;;;;;21.08;68.96;99348.94;4950370;29;20031;-82
2023/06/18 06:10:36;;;;;;;2.72;2.05;;;;;;;21.27;69.16;99360.22;4947268;29;20437;-84
2023/06/18 06:13:03;;;;;;;5.82;2.47;;;;;;;21.07;68.96;99356.16;4936403;29;20079;-82
2023/06/18 06:15:29;;;;;;;3.08;1.70;;;;;;;21.05;69.60;99335.75;4936951;29;20035;-90
2023/06/18 06:17:54;;;;;;;3.63;2.58;;;;;;;20.65;69.54;99327.53;4948034;29;20488;-90
2023/06/18 06:20:20;;;;;;;6.82;2.13;;;;;;;21.00;70.79;99381.63;4947450;28;20048;-87
2023/06/18 06:22:45;;;;;;;3.30;1.60;;;;;;;21.04;69.62;99345.63;4940182;29;20047;-87
2023/06/18 06:25:11;;;;;;;2.72;1.90;;;;;;;20.97;69.92;99321.97;4933719;29;20410;-88
2023/06/18 06:27:37;;;;;;;1.83;1.42;;;;;;;21.03;69.62;99316.22;4946633;29;20026;-87
2023/06/18 06:30:05;;;;;;;3.42;2.90;;;;;;;21.01;70.16;99312.78;4949467;29;20038;-87
2023/06/18 06:32:30;;;;;;;4.10;1.77;;;;;;;21.16;69.56;99346.63;4945944;29;20532;-88
2023/06/18 06:34:56;;;;;;;3.30;1.90;;;;;;;21.49;69.72;99361.53;4946283;29;20027;-88
2023/06/18 06:37:32;;;;;;;2.97;2.15;;;;;;;21.28;68.52;99337.78;4936392;29;20352;-89
2023/06/18 06:39:58;;;;;;;3.72;2.70;;;;;;;21.35;68.73;99358.84;4936869;29;20035;-86
2023/06/18 06:42:24;;;;;;;3.80;2.75;;;;;;;21.54;68.89;99348.69;4933796;29;20085;-93
2023/06/18 06:44:50;;;;;;;3.22;2.40;;;;;;;21.35;68.31;99334.69;4931777;29;20089;-87
2023/06/18 06:47:17;;;;;;;2.42;1.42;;;;;;;21.59;68.54;99364.47;4941880;29;20036;-85
2023/06/18 06:49:44;;;;;;;3.33;2.15;;;;;;;21.41;68.59;99406.75;4938059;29;20130;-89
2023/06/18 06:52:10;;;;;;;2.85;2.03;;;;;;;21.21;68.95;99325.75;4937148;29;20497;-86
2023/06/18 06:54:35;;;;;;;2.53;1.92;;;;;;;21.38;67.52;99343.44;4937421;29;20062;-86
2023/06/18 06:57:01;;;;;;;4.47;2.33;;;;;;;21.57;67.74;99343.09;4936369;29;20031;-86
2023/06/18 06:59:26;;;;;;;2.78;1.67;;;;;;;21.53;67.82;99338.03;4940978;29;20082;-85
2023/06/18 07:01:52;;;;;;;3.83;3.10;;;;;;;21.62;66.40;99334.75;4937457;29;20039;-84
2023/06/18 07:04:17;;;;;;;2.47;1.60;;;;;;;21.96;67.59;99378.97;4941852;29;20123;-83
2023/06/18 07:06:43;;;;;;;2.63;1.83;;;;;;;22.38;66.94;99380.72;4941800;29;20039;-86
2023/06/18 07:09:08;;;;;;;3.03;1.88;;;;;;;22.15;66.42;99348.19;4940507;29;20399;-85
2023/06/18 07:11:40;;;;;;;2.30;1.67;;;;;;;21.63;66.50;99352.59;4938726;29;20043;-91
2023/06/18 07:14:05;;;;;;;3.20;1.73;;;;;;;21.76;68.26;99364.22;4946336;29;20035;-86
2023/06/18 07:16:31;;;;;;;2.45;1.80;;;;;;;21.73;67.86;99369.78;4915447;29;20114;-86
2023/06/18 07:18:57;;;;;;;3.90;2.53;;;;;;;21.71;67.30;99373.53;4938794;29;20031;-85
2023/06/18 07:21:22;;;;;;;5.00;3.08;;;;;;;21.68;67.09;99392.53;4942965;29;20054;-85
2023/06/18 07:23:48;;;;;;;3.90;2.63;;;;;;;21.67;68.34;99391.66;4950732;29;20035;-86
2023/06/18 07:26:13;;;;;;;2.80;1.70;;;;;;;22.11;68.74;99411.16;4948115;29;20465;-86
2023/06/18 07:28:39;;;;;;;3.65;2.42;;;;;;;22.10;66.47;99378.03;4943525;29;20421;-86
2023/06/18 07:31:04;;;;;;;2.55;1.65;;;;;;;21.71;66.94;99357.44;4937782;29;20032;-85
2023/06/18 07:33:30;;;;;;;3.15;2.20;;;;;;;22.16;68.35;99374.09;4937287;29;20028;-88
2023/06/18 07:35:55;;;;;;;3.67;1.58;;;;;;;22.23;66.34;99382.59;4944867;29;20545;-86
2023/06/18 07:38:22;;;;;;;4.20;2.75;;;;;;;22.66;67.36;99399.34;4942731;29;20070;-92
2023/06/18 07:40:48;;;;;;;2.67;1.52;;;;;;;22.30;65.84;99347.16;4944165;29;20028;-85
2023/06/18 07:43:13;;;;;;;4.72;2.30;;;;;;;22.50;66.81;99355.69;4942928;29;20101;-87
2023/06/18 07:45:39;;;;;;;3.78;2.50;;;;;;;22.41;65.46;99330.31;4952670;29;22268;-87
2023/06/18 07:48:07;;;;;;;3.92;2.88;;;;;;;22.53;65.54;99360.84;4944498;29;20093;-87
2023/06/18 07:50:44;;;;;;;2.38;1.63;;;;;;;22.46;66.90;99341.59;4937147;29;20106;-87
2023/06/18 07:53:11;;;;;;;2.97;1.80;;;;;;;22.42;66.31;99350.84;4937739;29;20437;-90
2023/06/18 07:55:37;;;;;;;2.58;2.05;;;;;;;22.50;66.24;99383.41;4955022;29;20070;-86
2023/06/18 07:58:03;;;;;;;3.55;2.25;;;;;;;22.33;65.98;99368.44;4954524;29;20441;-86
2023/06/18 08:00:29;;;;;;;2.45;1.95;;;;;;;22.92;65.21;99388.56;4953837;29;20055;-87
2023/06/18 08:02:54;;;;;;;3.05;2.22;;;;;;;23.95;64.84;99424.19;4952643;29;20035;-90
2023/06/18 08:05:20;;;;;;;2.85;2.55;;;;;;;23.93;61.38;99382.19;4952443;29;20050;-86
2023/06/18 08:07:45;;;;;;;5.38;2.80;;;;;;;24.10;64.34;99387.16;4954711;29;20158;-85
2023/06/18 08:10:12;;;;;;;4.13;2.13;;;;;;;24.30;61.92;99406.34;4954910;29;20027;-88
2023/06/18 08:12:37;;;;;;;3.28;2.13;;;;;;;24.20;62.13;99449.28;4953849;29;20035;-86
2023/06/18 08:15:03;;;;;;;4.40;3.00;;;;;;;23.48;64.08;99363.94;4947809;29;20505;-88
2023/06/18 08:17:42;;;;;;;3.67;2.53;;;;;;;23.45;61.26;99333.69;4955767;29;20031;-87
2023/06/18 08:20:08;;;;;;;2.78;2.25;;;;;;;23.41;61.84;99344.69;4953062;29;20059;-90
2023/06/18 08:22:33;;;;;;;4.57;2.50;;;;;;;24.22;63.04;99382.66;4934115;29;20093;-86
2023/06/18 08:24:59;;;;;;;3.35;2.20;;;;;;;24.06;62.44;99392.88;4934133;29;20095;-87
2023/06/18 08:27:24;;;;;;;4.72;2.47;;;;;;;24.95;63.57;99426.47;4935545;29;20032;-84
2023/06/18 08:29:50;;;;;;;6.25;2.63;;;;;;;24.73;61.94;99397.63;4952375;29;20031;-87
2023/06/18 08:32:15;;;;;;;4.15;2.90;;;;;;;25.13;61.63;99397.16;4954488;29;20023;-85
2023/06/18 08:34:42;;;;;;;4.40;2.67;;;;;;;24.76;57.75;99381.22;4954430;29;20035;-93
2023/06/18 08:37:12;;;;;;;5.10;2.60;;;;;;;24.44;59.37;99381.84;4954096;29;20461;-85
2023/06/18 08:39:38;;;;;;;3.35;1.95;;;;;;;24.81;59.39;99368.22;4954116;29;20188;-88
2023/06/18 08:42:05;;;;;;;5.18;2.47;;;;;;;25.31;58.27;99389.44;4954001;29;20031;-86
2023/06/18 08:44:33;;;;;;;4.72;3.22;;;;;;;25.90;58.32;99420.63;4935723;29;20051;-92
2023/06/18 08:47:00;;;;;;;3.15;1.92;;;;;;;25.15;57.16;99383.53;4953649;29;20039;-86
2023/06/18 08:49:30;;;;;;;2.60;1.85;;;;;;;25.30;56.75;99371.53;4953942;29;20054;-85
2023/06/18 08:51:57;;;;;;;4.10;2.22;;;;;;;26.22;57.52;99429.72;4953955;29;20069;-84
2023/06/18 08:54:28;;;;;;;4.22;2.60;;;;;;;26.13;55.60;99423.25;4953191;29;20035;-85
2023/06/18 08:57:07;;;;;;;3.38;2.13;;;;;;;25.82;57.48;99414.97;4953324;29;20087;-88
2023/06/18 08:59:34;;;;;;;4.30;2.38;;;;;;;25.22;57.66;99382.03;4952528;29;20043;-86
2023/06/18 09:02:00;;;;;;;5.97;2.20;;;;;;;25.41;57.01;99432.75;4952054;29;20031;-86
2023/06/18 09:04:26;;;;;;;3.78;2.25;;;;;;;24.76;57.37;99391.13;4952667;29;20027;-85
2023/06/18 09:06:53;;;;;;;4.22;2.20;;;;;;;24.86;57.85;99435.28;4952944;29;20031;-85
2023/06/18 09:09:20;;;;;;;3.53;2.28;;;;;;;25.13;61.31;99404.38;4952694;29;20067;-85
2023/06/18 09:11:46;;;;;;;2.47;1.80;;;;;;;25.51;57.63;99447.19;4953021;29;20039;-86
2023/06/18 09:14:14;;;;;;;7.25;1.65;;;;;;;25.98;58.59;99432.63;4952326;29;20039;-87
2023/06/18 09:16:41;;;;;;;4.03;2.38;;;;;;;26.08;57.21;99387.66;4953345;29;20031;-87
2023/06/18 09:19:06;;;;;;;2.80;2.15;;;;;;;25.37;54.54;99374.59;4951725;29;20035;-86
2023/06/18 09:21:43;;;;;;;3.20;1.95;;;;;;;25.50;56.31;99418.50;4949909;29;20039;-86
2023/06/18 09:24:21;;;;;;;4.25;2.15;;;;;;;25.69;57.60;99439.44;4932325;29;20060;-85
2023/06/18 09:26:50;;;;;;;5.03;2.15;;;;;;;25.36;55.57;99398.03;4933428;29;20039;-85
2023/06/18 09:29:15;;;;;;;3.90;1.83;;;;;;;25.70;59.03;99395.25;4952850;29;20115;-84
2023/06/18 09:31:46;;;;;;;5.38;1.67;;;;;;;25.96;54.63;99410.28;4952248;29;20552;-85
2023/06/18 09:34:12;;;;;;;2.65;1.50;;;;;;;25.83;54.56;99441.00;4933311;29;20035;-87
2023/06/18 09:36:40;;;;;;;1.92;1.30;;;;;;;25.53;55.98;99410.16;4952079;29;20027;-83
2023/06/18 09:39:16;;;;;;;2.72;2.17;;;;;;;25.78;57.98;99410.84;4930885;29;20422;-83
2023/06/18 09:41:43;;;;;;;3.30;1.70;;;;;;;25.62;56.17;99404.97;4941915;29;20090;-85
2023/06/18 09:44:09;;;;;;;2.38;1.63;;;;;;;25.93;58.42;99400.56;4951397;29;20035;-86
2023/06/18 09:46:35;;;;;;;1.90;1.38;;;;;;;26.08;55.50;99374.16;4951634;29;20109;-84
2023/06/18 09:49:00;;;;;;;2.97;1.83;;;;;;;26.12;55.24;99435.06;4945896;29;20042;-84
2023/06/18 09:51:26;;;;;;;2.58;1.92;;;;;;;25.31;56.08;99397.53;4951104;29;20216;-84
2023/06/18 09:54:01;;;;;;;2.65;1.67;;;;;;;24.79;56.92;99407.06;4951797;29;20106;-84
2023/06/18 09:56:26;;;;;;;2.78;1.50;;;;;;;24.69;58.09;99385.38;4950960;28;20035;-89
2023/06/18 09:58:52;;;;;;;4.70;2.30;;;;;;;24.93;57.62;99405.97;4945860;29;20047;-86
2023/06/18 10:01:19;;;;;;;1.98;1.55;;;;;;;25.07;56.91;99373.38;4948170;29;20457;-86
2023/06/18 10:03:46;;;;;;;2.28;1.00;;;;;;;24.50;56.10;99391.31;4947222;29;20035;-86
2023/06/18 10:06:16;;;;;;;2.28;1.60;;;;;;;24.70;59.45;99459.91;4944506;29;20186;-86
2023/06/18 10:08:44;;;;;;;2.58;1.42;;;;;;;24.43;57.21;99403.53;4951608;29;20533;-85
2023/06/18 10:11:10;;;;;;;1.85;1.67;;;;;;;24.83;59.75;99413.94;4951114;29;20027;-87
2023/06/18 10:13:41;;;;;;;2.85;1.77;;;;;;;25.16;56.23;99399.63;4951645;29;20035;-85
2023/06/18 10:16:08;;;;;;;2.47;1.48;;;;;;;25.30;55.86;99397.66;4944679;29;20032;-87
2023/06/18 10:18:34;;;;;;;2.40;1.67;;;;;;;25.56;56.52;99392.81;4943113;29;20035;-89
2023/06/18 10:21:04;;;;;;;4.40;1.58;;;;;;;25.92;54.33;99391.63;4936670;29;20768;-88
2023/06/18 10:23:32;;;;;;;2.25;2.03;;;;;;;25.34;55.47;99374.84;4934977;29;20031;-88
2023/06/18 10:26:00;;;;;;;2.40;1.42;;;;;;;25.33;58.23;99403.69;4945689;29;20081;-88
2023/06/18 10:28:28;;;;;;;3.38;2.13;;;;;;;25.63;56.70;99409.41;4947067;29;20489;-87
2023/06/18 10:30:54;;;;;;;4.20;1.67;;;;;;;25.41;56.87;99358.97;4936541;29;20122;-88
2023/06/18 10:33:20;;;;;;;2.00;1.20;;;;;;;25.85;57.58;99324.72;4946393;29;20082;-88
2023/06/18 10:35:49;;;;;;;4.05;1.92;;;;;;;25.70;55.15;99367.38;4945357;29;20445;-87
2023/06/18 10:38:15;;;;;;;1.38;1.13;;;;;;;26.22;53.19;99398.16;4939249;29;20036;-89
2023/06/18 10:40:42;;;;;;;2.03;1.27;;;;;;;26.35;53.14;99414.16;4936704;29;20038;-90
2023/06/18 10:43:09;;;;;;;1.67;1.15;;;;;;;26.04;54.26;99386.19;4937844;29;20031;-87
2023/06/18 10:45:35;;;;;;;1.58;1.10;;;;;;;25.33;53.29;99390.19;4942362;29;20030;-89
2023/06/18 10:48:15;;;;;;;1.52;1.40;;;;;;;25.61;57.06;99384.34;4937550;29;20051;-87
2023/06/18 10:51:01;;;;;;;1.95;1.25;;;;;;;25.77;53.11;99333.47;4943041;28;20023;-91
2023/06/18 10:53:26;;;;;;;1.58;1.17;;;;;;;25.81;52.37;99321.44;4950240;29;20078;-89
2023/06/18 10:55:58;;;;;;;2.20;1.20;;;;;;;25.97;53.47;99364.22;4946718;29;20461;-88
2023/06/18 10:58:34;;;;;;;2.33;1.30;;;;;;;25.78;54.93;99361.34;4938065;29;20607;-88
2023/06/18 11:01:00;;;;;;;1.75;1.50;;;;;;;25.63;54.28;99339.19;4950523;29;20031;-87
2023/06/18 11:03:34;;;;;;;2.13;1.25;;;;;;;26.35;56.36;99376.31;4928957;29;20042;-87
2023/06/18 11:06:04;;;;;;;2.50;1.17;;;;;;;26.40;55.63;99324.53;4949492;29;20051;-86
2023/06/18 11:08:34;;;;;;;1.20;0.77;;;;;;;26.49;51.26;99326.44;4937838;29;20031;-87
2023/06/18 11:11:10;;;;;;;3.72;2.00;;;;;;;26.38;51.74;99340.91;4950033;29;20537;-86
2023/06/18 11:13:41;;;;;;;2.95;1.85;;;;;;;26.09;53.83;99362.34;4950489;29;20031;-86
2023/06/18 11:16:06;;;;;;;2.58;1.48;;;;;;;25.95;53.24;99389.63;4950289;29;20039;-87
2023/06/18 11:18:33;;;;;;;1.15;1.05;;;;;;;25.75;52.33;99340.84;4951403;29;20486;-87
2023/06/18 11:21:02;;;;;;;1.80;1.23;;;;;;;25.50;53.87;99318.59;4949113;29;20023;-86
2023/06/18 11:23:29;;;;;;;2.38;1.10;;;;;;;25.45;53.44;99326.22;4951389;29;20458;-87
2023/06/18 11:25:55;;;;;;;1.20;0.63;;;;;;;25.32;53.58;99326.38;4950929;29;20035;-87
2023/06/18 11:28:22;;;;;;;1.70;1.08;;;;;;;25.63;54.28;99329.22;4949984;29;20031;-87
2023/06/18 11:30:58;;;;;;;1.77;1.23;;;;;;;25.72;54.61;99301.44;4952274;29;20135;-89
2023/06/18 11:33:34;;;;;;;1.77;1.02;;;;;;;26.25;54.12;99378.13;4952452;29;20073;-90